createdAt,value
2019-02-18T00:01:03.958Z,100623.72
2019-02-18T00:03:32.118Z,100619.07
2019-02-18T00:06:00.290Z,100620.97
2019-02-18T00:08:28.447Z,100626.66
2019-02-18T00:10:56.505Z,100620.42
2019-02-18T00:13:24.861Z,100625.30
2019-02-18T00:15:52.944Z,100618.89
2019-02-18T00:18:21.050Z,100621.98
2019-02-18T00:20:49.107Z,100618.55
2019-02-18T00:23:17.197Z,100621.92
2019-02-18T00:25:45.261Z,100618.59
2019-02-18T00:28:13.675Z,100615.31
2019-02-18T00:30:41.740Z,100621.62
2019-02-18T00:33:09.807Z,100626.13
2019-02-18T00:35:43.506Z,100623.80
2019-02-18T00:38:11.720Z,100619.69
2019-02-18T00:40:41.073Z,100627.89
2019-02-18T00:43:09.156Z,100629.07
2019-02-18T00:45:37.228Z,100631.13
2019-02-18T00:48:05.304Z,100633.02
2019-02-18T00:50:33.378Z,100630.08
2019-02-18T00:53:03.945Z,100630.48
2019-02-18T00:55:31.521Z,100629.57
2019-02-18T00:57:59.636Z,100624.53
2019-02-18T01:00:27.682Z,100629.54
2019-02-18T01:02:55.751Z,100626.70
2019-02-18T01:05:24.046Z,100630.98
2019-02-18T01:07:52.263Z,100623.23
2019-02-18T01:10:20.325Z,100626.91
2019-02-18T01:12:48.391Z,100627.18
2019-02-18T01:15:16.460Z,100629.09
2019-02-18T01:17:46.230Z,100618.92
2019-02-18T01:20:14.607Z,100623.79
2019-02-18T01:22:44.649Z,100626.29
2019-02-18T01:25:12.934Z,100619.91
2019-02-18T01:27:41.070Z,100623.61
2019-02-18T01:30:12.747Z,100622.55
2019-02-18T01:32:42.432Z,100624.25
2019-02-18T01:35:12.535Z,100620.24
2019-02-18T01:37:45.582Z,100617.67
2019-02-18T01:40:12.705Z,100615.91
2019-02-18T01:42:41.150Z,100609.33
2019-02-18T01:45:11.114Z,100604.98
2019-02-18T01:47:41.287Z,100607.84
2019-02-18T01:50:12.688Z,100609.63
2019-02-18T01:52:41.902Z,100598.63
2019-02-18T01:55:11.575Z,100601.02
2019-02-18T01:57:40.181Z,100599.13
2019-02-18T02:00:14.415Z,100595.02
2019-02-18T02:02:42.802Z,100592.89
2019-02-18T02:05:13.540Z,100594.77
2019-02-18T02:07:41.675Z,100595.39
2019-02-18T02:10:11.616Z,100592.80
2019-02-18T02:12:39.839Z,100585.50
2019-02-18T02:15:13.577Z,100596.38
2019-02-18T02:17:42.360Z,100592.13
2019-02-18T02:20:12.795Z,100595.09
2019-02-18T02:22:40.884Z,100591.59
2019-02-18T02:25:09.089Z,100589.22
2019-02-18T02:27:37.505Z,100593.04
2019-02-18T02:30:06.951Z,100601.07
2019-02-18T02:32:36.100Z,100601.69
2019-02-18T02:35:04.406Z,100609.75
2019-02-18T02:37:32.487Z,100609.06
2019-02-18T02:40:00.724Z,100599.97
2019-02-18T02:42:28.885Z,100599.11
2019-02-18T02:44:57.046Z,100597.94
2019-02-18T02:47:25.226Z,100598.55
2019-02-18T02:49:53.672Z,100596.55
2019-02-18T02:52:21.682Z,100595.48
2019-02-18T02:54:49.887Z,100603.19
2019-02-18T02:57:17.935Z,100595.96
2019-02-18T02:59:45.986Z,100595.62
2019-02-18T03:02:14.048Z,100591.02
2019-02-18T03:05:05.387Z,100598.34
2019-02-18T03:07:33.456Z,100591.50
2019-02-18T03:10:01.550Z,100594.09
2019-02-18T03:12:29.659Z,100588.42
2019-02-18T03:14:57.739Z,100591.50
2019-02-18T03:17:26.111Z,100592.67
2019-02-18T03:19:54.203Z,100587.95
2019-02-18T03:22:22.243Z,100588.90
2019-02-18T03:25:22.698Z,100577.34
2019-02-18T03:27:55.768Z,100580.28
2019-02-18T03:30:54.177Z,100581.11
2019-02-18T03:33:35.047Z,100581.47
2019-02-18T03:36:03.095Z,100575.92
2019-02-18T03:38:32.096Z,100577.70
2019-02-18T03:41:03.389Z,100575.80
2019-02-18T03:43:31.364Z,100576.52
2019-02-18T03:45:59.472Z,100567.52
2019-02-18T03:48:27.798Z,100572.58
2019-02-18T03:50:55.870Z,100577.55
2019-02-18T03:53:24.047Z,100575.30
2019-02-18T03:55:52.122Z,100574.22
2019-02-18T03:58:20.200Z,100576.95
2019-02-18T04:00:48.581Z,100574.34
2019-02-18T04:03:16.622Z,100592.89
2019-02-18T04:05:44.734Z,100583.58
2019-02-18T04:08:12.895Z,100579.33
2019-02-18T04:10:41.195Z,100585.48
2019-02-18T04:13:09.310Z,100584.41
2019-02-18T04:15:37.518Z,100581.94
2019-02-18T04:18:05.726Z,100591.38
2019-02-18T04:20:33.792Z,100600.95
2019-02-18T04:23:01.881Z,100599.30
2019-02-18T04:25:29.900Z,100605.23
2019-02-18T04:27:57.975Z,100606.05
2019-02-18T04:30:26.029Z,100601.20
2019-02-18T04:32:54.393Z,100608.99
2019-02-18T04:35:22.842Z,100600.75
2019-02-18T04:37:50.947Z,100599.45
2019-02-18T04:40:19.116Z,100601.81
2019-02-18T04:42:48.020Z,100600.98
2019-02-18T04:45:16.285Z,100607.66
2019-02-18T04:47:44.350Z,100604.48
2019-02-18T04:50:12.593Z,100597.52
2019-02-18T04:52:41.798Z,100602.70
2019-02-18T04:55:10.075Z,100593.27
2019-02-18T04:57:38.625Z,100593.95
2019-02-18T05:00:08.513Z,100602.48
2019-02-18T05:02:36.845Z,100605.64
2019-02-18T05:05:06.493Z,100596.45
2019-02-18T05:07:35.687Z,100598.31
2019-02-18T05:10:04.509Z,100592.07
2019-02-18T05:12:32.608Z,100590.42
2019-02-18T05:15:02.024Z,100598.80
2019-02-18T05:17:30.273Z,100590.28
2019-02-18T05:19:58.472Z,100590.28
2019-02-18T05:22:26.945Z,100592.18
2019-02-18T05:24:55.068Z,100591.00
2019-02-18T05:27:33.072Z,100587.67
2019-02-18T05:29:53.168Z,100585.67
2019-02-18T05:32:21.250Z,100583.42
2019-02-18T05:34:49.339Z,100579.77
2019-02-18T05:37:18.167Z,100588.50
2019-02-18T05:39:46.532Z,100578.72
2019-02-18T05:42:14.592Z,100578.72
2019-02-18T05:44:42.663Z,100581.79
2019-02-18T05:47:10.705Z,100574.22
2019-02-18T05:49:40.202Z,100577.28
2019-02-18T05:52:09.471Z,100571.50
2019-02-18T05:54:37.532Z,100574.01
2019-02-18T05:57:05.633Z,100570.47
2019-02-18T05:59:33.702Z,100571.29
2019-02-18T06:02:07.005Z,100568.10
2019-02-18T06:04:35.051Z,100573.17
2019-02-18T06:07:03.104Z,100571.88
2019-02-18T06:09:31.284Z,100573.29
2019-02-18T06:11:59.564Z,100570.55
2019-02-18T06:14:27.675Z,100569.63
2019-02-18T06:16:56.873Z,100576.58
2019-02-18T06:19:24.969Z,100571.95
2019-02-18T06:21:53.299Z,100571.61
2019-02-18T06:24:22.479Z,100571.61
2019-02-18T06:26:50.567Z,100567.84
2019-02-18T06:29:18.700Z,100573.97
2019-02-18T06:31:46.734Z,100578.20
2019-02-18T06:34:14.829Z,100571.84
2019-02-18T06:36:43.081Z,100571.72
2019-02-18T06:39:11.170Z,100576.91
2019-02-18T06:41:39.343Z,100573.02
2019-02-18T06:44:07.412Z,100574.44
2019-02-18T06:46:38.675Z,100568.91
2019-02-18T06:49:15.444Z,100573.27
2019-02-18T06:51:43.758Z,100568.52
2019-02-18T06:54:11.804Z,100575.59
2019-02-18T06:57:08.521Z,100567.11
2019-02-18T06:59:46.444Z,100570.53
2019-02-18T07:02:19.541Z,100569.70
2019-02-18T07:05:25.882Z,100571.70
2019-02-18T07:08:12.202Z,100565.36
2019-02-18T07:10:55.224Z,100565.59
2019-02-18T07:13:23.299Z,100569.50
2019-02-18T07:15:51.348Z,100569.99
2019-02-18T07:18:19.407Z,100570.70
2019-02-18T07:20:47.809Z,100570.48
2019-02-18T07:23:16.367Z,100570.25
2019-02-18T07:25:44.418Z,100568.97
2019-02-18T07:28:12.445Z,100565.94
2019-02-18T07:30:40.904Z,100567.69
2019-02-18T07:33:10.919Z,100570.04
2019-02-18T07:35:39.000Z,100570.51
2019-02-18T07:38:07.089Z,100572.71
2019-02-18T07:40:35.102Z,100564.98
2019-02-18T07:43:03.147Z,100575.91
2019-02-18T07:45:31.209Z,100572.17
2019-02-18T07:47:59.261Z,100571.97
2019-02-18T07:50:27.286Z,100564.78
2019-02-18T07:52:55.332Z,100569.48
2019-02-18T07:55:23.578Z,100571.71
2019-02-18T07:57:51.620Z,100571.38
2019-02-18T08:00:19.985Z,100577.23
2019-02-18T08:02:48.609Z,100576.78
2019-02-18T08:05:16.668Z,100566.78
2019-02-18T08:07:44.722Z,100575.49
2019-02-18T08:10:12.773Z,100567.59
2019-02-18T08:12:40.821Z,100562.62
2019-02-18T08:15:09.371Z,100569.84
2019-02-18T08:17:37.406Z,100567.88
2019-02-18T08:20:06.890Z,100567.30
2019-02-18T08:22:35.342Z,100572.66
2019-02-18T08:25:03.776Z,100572.40
2019-02-18T08:27:31.945Z,100573.95
2019-02-18T08:29:59.978Z,100572.91
2019-02-18T08:32:28.015Z,100564.94
2019-02-18T08:34:56.088Z,100566.09
2019-02-18T08:37:24.133Z,100561.14
2019-02-18T08:39:52.590Z,100555.30
2019-02-18T08:42:20.919Z,100548.63
2019-02-18T08:44:49.824Z,100550.41
2019-02-18T08:47:18.189Z,100552.23
2019-02-18T08:49:46.253Z,100549.89
2019-02-18T08:52:14.284Z,100545.56
2019-02-18T08:54:42.413Z,100543.22
2019-02-18T08:57:10.449Z,100530.97
2019-02-18T08:59:38.537Z,100530.48
2019-02-18T09:02:06.541Z,100528.00
2019-02-18T09:04:34.616Z,100522.55
2019-02-18T09:07:02.633Z,100523.70
2019-02-18T09:09:30.774Z,100516.61
2019-02-18T09:11:58.833Z,100524.24
2019-02-18T09:14:27.214Z,100525.37
2019-02-18T09:16:55.597Z,100520.15
2019-02-18T09:19:23.669Z,100517.92
2019-02-18T09:22:01.751Z,100513.61
2019-02-18T09:24:39.605Z,100511.37
2019-02-18T09:27:07.648Z,100508.53
2019-02-18T09:29:35.699Z,100510.38
2019-02-18T09:32:03.754Z,100510.21
2019-02-18T09:34:33.002Z,100511.98
2019-02-18T09:37:01.097Z,100510.55
2019-02-18T09:39:31.467Z,100511.47
2019-02-18T09:41:59.190Z,100508.63
2019-02-18T09:44:27.251Z,100503.94
2019-02-18T09:46:55.340Z,100502.73
2019-02-18T09:49:23.422Z,100498.70
2019-02-18T09:51:51.823Z,100496.60
2019-02-18T09:54:19.911Z,100498.70
2019-02-18T09:56:48.394Z,100495.55
2019-02-18T09:59:17.727Z,100497.36
2019-02-18T10:01:46.931Z,100493.33
2019-02-18T10:04:14.988Z,100489.36
2019-02-18T10:06:44.254Z,100485.19
2019-02-18T10:09:12.431Z,100480.41
2019-02-18T10:11:40.552Z,100475.34
2019-02-18T10:14:08.791Z,100471.28
2019-02-18T10:16:37.005Z,100475.19
2019-02-18T10:19:05.125Z,100472.52
2019-02-18T10:21:34.208Z,100467.37
2019-02-18T10:24:02.384Z,100463.72
2019-02-18T10:26:30.523Z,100454.34
2019-02-18T10:28:58.888Z,100455.20
2019-02-18T10:31:26.942Z,100450.71
2019-02-18T10:33:55.035Z,100446.81
2019-02-18T10:36:23.548Z,100442.66
2019-02-18T10:38:52.555Z,100437.92
2019-02-18T10:41:20.582Z,100438.03
2019-02-18T10:43:49.011Z,100437.16
2019-02-18T10:46:17.028Z,100434.94
2019-02-18T10:48:45.773Z,100427.29
2019-02-18T10:51:14.142Z,100431.73
2019-02-18T10:53:42.196Z,100426.47
2019-02-18T10:56:10.629Z,100419.33
2019-02-18T10:58:38.706Z,100411.33
2019-02-18T11:01:07.043Z,100409.74
2019-02-18T11:03:35.552Z,100403.28
2019-02-18T11:06:03.634Z,100401.36
2019-02-18T11:08:31.827Z,100388.63
2019-02-18T11:10:59.897Z,100386.31
2019-02-18T11:13:28.007Z,100386.43
2019-02-18T11:15:56.196Z,100383.23
2019-02-18T11:18:24.351Z,100381.81
2019-02-18T11:20:53.200Z,100372.84
2019-02-18T11:23:21.282Z,100373.00
2019-02-18T11:25:49.355Z,100372.52
2019-02-18T11:28:17.417Z,100360.93
2019-02-18T11:30:45.764Z,100355.02
2019-02-18T11:33:14.674Z,100348.52
2019-02-18T11:35:43.026Z,100341.69
2019-02-18T11:38:11.493Z,100332.11
2019-02-18T11:40:39.619Z,100329.91
2019-02-18T11:43:08.965Z,100326.70
2019-02-18T11:45:37.541Z,100329.05
2019-02-18T11:48:05.587Z,100319.08
2019-02-18T11:50:34.138Z,100318.47
2019-02-18T11:53:04.237Z,100320.45
2019-02-18T11:55:33.710Z,100318.03
2019-02-18T11:58:01.884Z,100306.86
2019-02-18T12:00:30.036Z,100308.64
2019-02-18T12:03:03.163Z,100301.91
2019-02-18T12:05:28.658Z,100297.39
2019-02-18T12:07:58.475Z,100298.98
2019-02-18T12:10:26.580Z,100293.20
2019-02-18T12:12:55.900Z,100287.34
2019-02-18T12:15:24.738Z,100282.92
2019-02-18T12:17:53.929Z,100279.50
2019-02-18T12:20:26.192Z,100272.28
2019-02-18T12:22:54.322Z,100272.91
2019-02-18T12:25:22.805Z,100270.77
2019-02-18T12:27:51.308Z,100262.45
2019-02-18T12:30:19.762Z,100263.70
2019-02-18T12:32:48.547Z,100265.48
2019-02-18T12:35:16.708Z,100258.70
2019-02-18T12:37:54.706Z,100258.00
2019-02-18T12:40:14.721Z,100256.35
2019-02-18T12:42:42.979Z,100255.17
2019-02-18T12:45:11.428Z,100249.02
2019-02-18T12:47:39.478Z,100246.87
2019-02-18T12:50:07.893Z,100247.66
2019-02-18T12:52:35.948Z,100237.20
2019-02-18T12:55:05.507Z,100235.67
2019-02-18T12:57:33.970Z,100227.59
2019-02-18T13:00:02.137Z,100226.63
2019-02-18T13:02:30.288Z,100225.91
2019-02-18T13:04:58.404Z,100220.61
2019-02-18T13:07:26.790Z,100216.20
2019-02-18T13:09:56.636Z,100210.70
2019-02-18T13:12:24.709Z,100209.17
2019-02-18T13:14:53.436Z,100204.98
2019-02-18T13:17:22.955Z,100210.70
2019-02-18T13:19:50.986Z,100205.09
2019-02-18T13:22:19.026Z,100200.77
2019-02-18T13:24:47.079Z,100202.45
2019-02-18T13:27:15.111Z,100200.16
2019-02-18T13:29:43.131Z,100198.56
2019-02-18T13:32:11.549Z,100196.55
2019-02-18T13:34:39.977Z,100194.06
2019-02-18T13:37:11.333Z,100198.22
2019-02-18T13:39:39.345Z,100188.33
2019-02-18T13:42:07.931Z,100180.28
2019-02-18T13:44:36.356Z,100174.57
2019-02-18T13:47:04.588Z,100173.67
2019-02-18T13:49:32.590Z,100165.50
2019-02-18T13:52:00.687Z,100166.11
2019-02-18T13:54:28.795Z,100165.86
2019-02-18T13:56:56.849Z,100165.41
2019-02-18T13:59:26.006Z,100168.65
2019-02-18T14:01:54.107Z,100168.42
2019-02-18T14:04:22.157Z,100170.31
2019-02-18T14:06:50.527Z,100164.19
2019-02-18T14:09:19.080Z,100158.91
2019-02-18T14:11:47.266Z,100165.44
2019-02-18T14:14:15.357Z,100168.95
2019-02-18T14:16:43.467Z,100164.23
2019-02-18T14:19:11.506Z,100167.96
2019-02-18T14:21:39.966Z,100167.15
2019-02-18T14:24:09.992Z,100172.00
2019-02-18T14:26:38.099Z,100168.19
2019-02-18T14:29:06.206Z,100176.22
2019-02-18T14:31:35.614Z,100169.48
2019-02-18T14:34:03.682Z,100172.63
2019-02-18T14:36:32.261Z,100168.86
2019-02-18T14:39:01.313Z,100167.34
2019-02-18T14:41:31.080Z,100166.32
2019-02-18T14:43:59.467Z,100166.73
2019-02-18T14:46:27.505Z,100162.09
2019-02-18T14:48:55.801Z,100161.98
2019-02-18T14:51:23.838Z,100157.56
2019-02-18T14:53:52.032Z,100160.62
2019-02-18T14:56:21.709Z,100163.89
2019-02-18T14:58:49.738Z,100160.94
2019-02-18T15:01:17.959Z,100159.28
2019-02-18T15:03:46.029Z,100156.51
2019-02-18T15:06:14.125Z,100153.21
2019-02-18T15:08:42.179Z,100162.02
2019-02-18T15:11:10.642Z,100152.56
2019-02-18T15:13:38.749Z,100146.03
2019-02-18T15:16:06.820Z,100149.94
2019-02-18T15:18:35.170Z,100151.47
2019-02-18T15:21:03.353Z,100151.88
2019-02-18T15:23:31.486Z,100152.25
2019-02-18T15:25:59.539Z,100152.38
2019-02-18T15:28:27.608Z,100149.49
2019-02-18T15:30:56.170Z,100156.05
2019-02-18T15:33:24.267Z,100157.14
2019-02-18T15:35:52.309Z,100153.42
2019-02-18T15:38:20.426Z,100150.47
2019-02-18T15:40:48.622Z,100151.85
2019-02-18T15:43:17.059Z,100150.02
2019-02-18T15:45:46.231Z,100145.98
2019-02-18T15:48:14.473Z,100142.50
2019-02-18T15:50:42.539Z,100145.47
2019-02-18T15:53:11.972Z,100144.67
2019-02-18T15:55:41.924Z,100149.23
2019-02-18T15:58:10.407Z,100140.91
2019-02-18T16:00:38.560Z,100145.69
2019-02-18T16:03:06.633Z,100141.38
2019-02-18T16:05:34.736Z,100147.25
2019-02-18T16:08:02.820Z,100138.63
2019-02-18T16:10:31.002Z,100141.23
2019-02-18T16:13:00.227Z,100141.19
2019-02-18T16:15:28.845Z,100136.53
2019-02-18T16:17:56.945Z,100141.29
2019-02-18T16:20:24.936Z,100145.46
2019-02-18T16:22:53.029Z,100136.72
2019-02-18T16:25:22.514Z,100138.98
2019-02-18T16:27:50.876Z,100140.68
2019-02-18T16:30:18.942Z,100138.30
2019-02-18T16:32:47.104Z,100136.72
2019-02-18T16:35:15.512Z,100141.56
2019-02-18T16:37:43.970Z,100141.80
2019-02-18T16:40:14.504Z,100146.02
2019-02-18T16:42:43.068Z,100146.50
2019-02-18T16:45:13.541Z,100144.22
2019-02-18T16:47:41.954Z,100146.78
2019-02-18T16:50:10.291Z,100151.70
2019-02-18T16:52:38.449Z,100156.26
2019-02-18T16:55:08.545Z,100159.56
2019-02-18T16:57:38.184Z,100159.77
2019-02-18T17:00:18.920Z,100159.94
2019-02-18T17:02:47.085Z,100161.48
2019-02-18T17:05:15.242Z,100163.14
2019-02-18T17:07:43.359Z,100164.81
2019-02-18T17:10:11.433Z,100169.84
2019-02-18T17:12:39.561Z,100169.39
2019-02-18T17:15:09.159Z,100163.88
2019-02-18T17:17:37.980Z,100168.70
2019-02-18T17:20:06.582Z,100171.89
2019-02-18T17:22:34.903Z,100174.86
2019-02-18T17:25:02.979Z,100175.06
2019-02-18T17:27:32.391Z,100172.48
2019-02-18T17:30:00.811Z,100182.38
2019-02-18T17:32:28.968Z,100183.91
2019-02-18T17:34:57.582Z,100185.51
2019-02-18T17:37:25.847Z,100184.52
2019-02-18T17:39:53.875Z,100182.38
2019-02-18T17:42:23.520Z,100183.04
2019-02-18T17:44:51.757Z,100185.03
2019-02-18T17:47:22.026Z,100185.41
2019-02-18T17:49:50.185Z,100185.73
2019-02-18T17:52:18.883Z,100189.20
2019-02-18T17:54:46.931Z,100184.23
2019-02-18T17:57:15.132Z,100196.73
2019-02-18T17:59:43.334Z,100191.95
2019-02-18T18:02:11.491Z,100197.92
2019-02-18T18:04:40.287Z,100199.70
2019-02-18T18:07:10.708Z,100198.98
2019-02-18T18:09:38.806Z,100206.14
2019-02-18T18:12:08.695Z,100204.89
2019-02-18T18:14:36.859Z,100208.55
2019-02-18T18:17:04.905Z,100206.95
2019-02-18T18:19:33.117Z,100207.30
2019-02-18T18:22:01.483Z,100217.34
2019-02-18T18:24:30.821Z,100211.75
2019-02-18T18:26:58.865Z,100210.06
2019-02-18T18:29:26.987Z,100214.75
2019-02-18T18:31:56.485Z,100215.34
2019-02-18T18:34:26.051Z,100217.25
2019-02-18T18:36:54.094Z,100214.70
2019-02-18T18:39:22.295Z,100215.62
2019-02-18T18:41:50.846Z,100218.33
2019-02-18T18:44:20.230Z,100216.23
2019-02-18T18:46:48.267Z,100219.25
2019-02-18T18:49:16.834Z,100217.50
2019-02-18T18:51:44.861Z,100222.33
2019-02-18T18:54:13.184Z,100228.45
2019-02-18T18:56:41.217Z,100225.08
2019-02-18T18:59:09.455Z,100221.98
2019-02-18T19:01:37.570Z,100225.94
2019-02-18T19:04:05.887Z,100226.13
2019-02-18T19:06:34.967Z,100228.30
2019-02-18T19:09:03.890Z,100227.72
2019-02-18T19:11:32.357Z,100231.84
2019-02-18T19:14:00.809Z,100234.02
2019-02-18T19:16:29.125Z,100240.11
2019-02-18T19:18:57.920Z,100241.28
2019-02-18T19:21:26.003Z,100245.71
2019-02-18T19:23:54.469Z,100258.04
2019-02-18T19:26:22.510Z,100254.28
2019-02-18T19:28:50.708Z,100253.31
2019-02-18T19:31:18.760Z,100262.34
2019-02-18T19:33:46.872Z,100273.98
2019-02-18T19:36:15.170Z,100276.28
2019-02-18T19:38:43.248Z,100278.56
2019-02-18T19:41:11.325Z,100284.14
2019-02-18T19:43:39.397Z,100282.34
2019-02-18T19:46:07.715Z,100282.03
2019-02-18T19:48:35.780Z,100279.05
2019-02-18T19:51:04.148Z,100279.02
2019-02-18T19:53:32.210Z,100274.78
2019-02-18T19:56:20.524Z,100275.11
2019-02-18T19:58:49.618Z,100271.65
2019-02-18T20:01:18.140Z,100274.42
2019-02-18T20:03:46.268Z,100283.92
2019-02-18T20:06:14.725Z,100283.74
2019-02-18T20:08:42.937Z,100276.68
2019-02-18T20:11:12.468Z,100276.03
2019-02-18T20:13:40.753Z,100278.81
2019-02-18T20:16:08.813Z,100276.01
2019-02-18T20:18:39.086Z,100277.66
2019-02-18T20:21:07.196Z,100274.02
2019-02-18T20:23:35.416Z,100273.87
2019-02-18T20:26:03.513Z,100268.77
2019-02-18T20:28:31.679Z,100266.30
2019-02-18T20:30:59.788Z,100262.38
2019-02-18T20:33:28.471Z,100260.06
2019-02-18T20:35:56.648Z,100260.87
2019-02-18T20:38:24.741Z,100257.26
2019-02-18T20:40:52.829Z,100261.48
2019-02-18T20:43:21.469Z,100253.95
2019-02-18T20:45:49.563Z,100257.36
2019-02-18T20:48:17.603Z,100266.03
2019-02-18T20:50:47.609Z,100259.45
2019-02-18T20:53:16.181Z,100268.13
2019-02-18T20:55:44.785Z,100275.28
2019-02-18T20:58:12.899Z,100267.92
2019-02-18T21:00:42.098Z,100263.31
2019-02-18T21:03:10.132Z,100267.56
2019-02-18T21:05:38.685Z,100269.66
2019-02-18T21:08:06.730Z,100274.88
2019-02-18T21:10:34.905Z,100275.17
2019-02-18T21:13:03.214Z,100273.21
2019-02-18T21:15:31.274Z,100277.91
2019-02-18T21:17:59.572Z,100284.11
2019-02-18T21:20:28.392Z,100287.67
2019-02-18T21:22:57.601Z,100288.11
2019-02-18T21:25:25.670Z,100286.08
2019-02-18T21:27:53.887Z,100284.60
2019-02-18T21:30:22.201Z,100289.01
2019-02-18T21:32:50.263Z,100290.48
2019-02-18T21:35:18.366Z,100296.68
2019-02-18T21:37:46.404Z,100295.66
2019-02-18T21:40:14.504Z,100296.80
2019-02-18T21:42:42.579Z,100296.75
2019-02-18T21:45:11.095Z,100292.98
2019-02-18T21:47:39.353Z,100301.80
2019-02-18T21:50:08.156Z,100298.66
2019-02-18T21:52:36.556Z,100300.28
2019-02-18T21:55:05.016Z,100304.81
2019-02-18T21:57:33.049Z,100309.53
2019-02-18T22:00:01.139Z,100310.18
2019-02-18T22:02:29.195Z,100310.80
2019-02-18T22:04:58.112Z,100309.64
2019-02-18T22:07:26.196Z,100308.49
2019-02-18T22:09:54.543Z,100318.94
2019-02-18T22:12:22.600Z,100317.63
2019-02-18T22:14:50.712Z,100315.02
2019-02-18T22:17:18.766Z,100319.91
2019-02-18T22:19:47.880Z,100327.06
2019-02-18T22:22:15.968Z,100322.30
2019-02-18T22:24:44.034Z,100325.50
2019-02-18T22:27:12.792Z,100323.00
2019-02-18T22:29:40.823Z,100324.73
2019-02-18T22:32:08.888Z,100326.84
2019-02-18T22:34:36.930Z,100321.53
2019-02-18T22:37:05.494Z,100326.36
2019-02-18T22:39:33.857Z,100329.22
2019-02-18T22:42:01.926Z,100324.53
2019-02-18T22:44:31.138Z,100330.69
2019-02-18T22:47:01.588Z,100328.98
2019-02-18T22:49:29.718Z,100324.74
2019-02-18T22:51:57.767Z,100330.08
2019-02-18T22:54:26.109Z,100329.08
2019-02-18T22:56:54.165Z,100326.47
2019-02-18T22:59:22.187Z,100321.52
2019-02-18T23:01:50.423Z,100316.27
2019-02-18T23:04:18.472Z,100314.42
2019-02-18T23:06:46.556Z,100321.06
2019-02-18T23:09:15.109Z,100321.66
2019-02-18T23:11:43.164Z,100321.00
2019-02-18T23:14:11.245Z,100326.96
2019-02-18T23:16:40.887Z,100320.56
2019-02-18T23:19:09.304Z,100315.42
2019-02-18T23:21:37.367Z,100315.84
2019-02-18T23:24:05.662Z,100320.17
2019-02-18T23:26:33.707Z,100315.73
2019-02-18T23:29:01.776Z,100322.41
2019-02-18T23:31:30.111Z,100320.88
2019-02-18T23:33:58.135Z,100324.60
2019-02-18T23:36:26.200Z,100330.08
2019-02-18T23:38:54.256Z,100330.93
2019-02-18T23:41:22.367Z,100330.04
2019-02-18T23:43:50.429Z,100325.91
2019-02-18T23:46:18.476Z,100330.26
2019-02-18T23:48:46.842Z,100326.50
2019-02-18T23:51:14.915Z,100320.58
2019-02-18T23:53:43.321Z,100334.43
2019-02-18T23:56:12.570Z,100328.20
2019-02-18T23:58:40.621Z,100330.45
